Jacksonville, Alabama
Current Conditions -  °F | °C
As of 3:53 AM on Wednesday 26 Nov 2014 (Local Time) from KANB Reporting Station
Clear Clear  
Wind Chill: 34°   Ceiling: Unl
Heat Index: 40°   Visibility: 10mi
Dew Point: 31°   Wind: 9mph
Humidity: 70%   Direction: 240°WSW
Pressure: 30.08"   Gusts: NA
Location:  33.81°N, 85.76°W
Report Text: KANB 260953Z AUTO 24008KT 10SM CLR 04/M01 A3008 RMK AO2 SLP190 T00441006
Loading
Personal Weather Stations






























Interactive Weather Map New forecast layout! Learn more

10-Day Weather Forecast

Advertisements
Track Severe Weather on mobile